Aérodrome :
LOGIN :

S'inscrire | Disclaimer

   EN    FR    IT 

 










Légende :    VFR   VFR Marginal   IFR   IFR Intensif   IFR Très Intensif
Visi : 
Plafond : 
>= 8 km
>= 3000ft
5 à 8 km
1000 à 3000 ft
1500m à 5 km
500 à 1000 ft
800 à 1500m
200 à 500 ft
< 800m
< 200 ft
Symboles :   Orages  Brouillard  Fortes neiges  Fortes précipitations  Vent > 20 kt
SIGMETs :   Divers  Orages  Givrage  Turbulence  Onde Orograph.  Cendres Volcan.






- Altitude de l'aérodrome : 675 ft
- Code IATA : RZE


EPRZ - Rzeszow-Jasionka

DERNIER METAR :
  • 272330Z 10002KT 7000 NSC M01/M01 Q1002

METARs EXPIRÉS :
  • 272300Z VRB02KT 6000 FEW046 M01/M02 Q1002
  • 272230Z 20005KT 8000 NSC M01/M02 Q1002
  • 272200Z 21003KT 7000 NSC M00/M01 Q1002
  • 272130Z 21003KT CAVOK M00/M01 Q1002
  • 272100Z 22004KT CAVOK M00/M01 Q1002

TAF TAF EPRZ
Valide du 27 à 18h jusqu'au 28 à 18h UTC


271730Z 2718/2818 24010KT 9999 SCT030
TEMPO 2718/2720 2000 SHSN BKN005 BKN013CB
BECMG 2720/2722 16002KT
BECMG 2803/2806 2000 SN BR BKN004 OVC010
TEMPO 2806/2810 1000
BECMG 2812/2814 32010KT CAVOK



MET'MAP, la Météo Aéronautique d'un coup d'oeil ! - Copyright ORBIFLY Décembre 2007 - Disclaimer

ORBIFLY MET'MAP TEAM :

Programmation & Développement : Alexandra Zaïnal
Sur une idée originale de : Baudouin d'Aumeries
Assistance à la programmation : Marc-Olivier Méhu
Soutien technique & logistique : Manuel Goepfert

Contact : metmap@orbifly.com




SOURCES & CREDITS :

   NOAA